sensor_id;sensor_type;location;lat;lon;timestamp;temperature;humidity
31729;DHT22;18309;43.658;1.312;2023-05-27T00:00:24;22.30;83.40
31729;DHT22;18309;43.658;1.312;2023-05-27T00:02:49;22.30;83.80
31729;DHT22;18309;43.658;1.312;2023-05-27T00:05:16;22.30;83.80
31729;DHT22;18309;43.658;1.312;2023-05-27T00:07:42;22.20;84.00
31729;DHT22;18309;43.658;1.312;2023-05-27T00:10:08;22.20;83.70
31729;DHT22;18309;43.658;1.312;2023-05-27T00:12:33;22.10;84.40
31729;DHT22;18309;43.658;1.312;2023-05-27T00:14:59;22.10;84.70
31729;DHT22;18309;43.658;1.312;2023-05-27T00:17:25;22.10;84.70
31729;DHT22;18309;43.658;1.312;2023-05-27T00:19:51;22.10;84.10
31729;DHT22;18309;43.658;1.312;2023-05-27T00:22:19;22.10;84.00
31729;DHT22;18309;43.658;1.312;2023-05-27T00:24:45;22.10;84.10
31729;DHT22;18309;43.658;1.312;2023-05-27T00:27:11;22.00;84.20
31729;DHT22;18309;43.658;1.312;2023-05-27T00:29:36;22.00;84.10
31729;DHT22;18309;43.658;1.312;2023-05-27T00:32:03;22.00;84.80
31729;DHT22;18309;43.658;1.312;2023-05-27T00:34:29;21.90;85.00
31729;DHT22;18309;43.658;1.312;2023-05-27T00:36:56;21.90;85.80
31729;DHT22;18309;43.658;1.312;2023-05-27T00:39:21;21.90;85.10
31729;DHT22;18309;43.658;1.312;2023-05-27T00:41:50;21.80;85.60
31729;DHT22;18309;43.658;1.312;2023-05-27T00:44:17;21.80;85.30
31729;DHT22;18309;43.658;1.312;2023-05-27T00:46:47;21.80;85.10
31729;DHT22;18309;43.658;1.312;2023-05-27T00:49:13;21.70;86.20
31729;DHT22;18309;43.658;1.312;2023-05-27T00:51:39;21.70;86.50
31729;DHT22;18309;43.658;1.312;2023-05-27T00:54:06;21.70;86.90
31729;DHT22;18309;43.658;1.312;2023-05-27T00:56:32;21.60;87.80
31729;DHT22;18309;43.658;1.312;2023-05-27T00:58:58;21.60;87.90
31729;DHT22;18309;43.658;1.312;2023-05-27T01:01:24;21.60;87.70
31729;DHT22;18309;43.658;1.312;2023-05-27T01:03:51;21.50;87.10
31729;DHT22;18309;43.658;1.312;2023-05-27T01:11:57;21.50;86.60
31729;DHT22;18309;43.658;1.312;2023-05-27T01:14:25;21.40;86.50
31729;DHT22;18309;43.658;1.312;2023-05-27T01:16:51;21.40;86.70
31729;DHT22;18309;43.658;1.312;2023-05-27T01:19:34;21.40;87.00
31729;DHT22;18309;43.658;1.312;2023-05-27T01:22:01;21.40;87.30
31729;DHT22;18309;43.658;1.312;2023-05-27T01:24:27;21.30;87.50
31729;DHT22;18309;43.658;1.312;2023-05-27T01:26:54;21.30;87.50
31729;DHT22;18309;43.658;1.312;2023-05-27T01:29:21;21.30;87.70
31729;DHT22;18309;43.658;1.312;2023-05-27T01:32:26;21.30;87.70
31729;DHT22;18309;43.658;1.312;2023-05-27T01:37:38;21.20;87.90
31729;DHT22;18309;43.658;1.312;2023-05-27T01:40:08;21.20;88.20
31729;DHT22;18309;43.658;1.312;2023-05-27T01:42:39;21.10;88.50
31729;DHT22;18309;43.658;1.312;2023-05-27T01:45:06;21.10;89.10
31729;DHT22;18309;43.658;1.312;2023-05-27T01:47:33;21.10;89.60
31729;DHT22;18309;43.658;1.312;2023-05-27T01:49:59;21.00;89.90
31729;DHT22;18309;43.658;1.312;2023-05-27T01:52:25;21.00;90.10
31729;DHT22;18309;43.658;1.312;2023-05-27T01:54:51;21.00;90.30
31729;DHT22;18309;43.658;1.312;2023-05-27T01:57:18;20.90;90.60
31729;DHT22;18309;43.658;1.312;2023-05-27T01:59:43;20.90;90.90
31729;DHT22;18309;43.658;1.312;2023-05-27T02:02:10;20.90;91.10
31729;DHT22;18309;43.658;1.312;2023-05-27T02:04:36;20.80;91.30
31729;DHT22;18309;43.658;1.312;2023-05-27T02:07:01;20.80;91.40
31729;DHT22;18309;43.658;1.312;2023-05-27T02:09:28;20.70;91.50
31729;DHT22;18309;43.658;1.312;2023-05-27T02:11:54;20.70;91.70
31729;DHT22;18309;43.658;1.312;2023-05-27T02:14:20;20.70;91.80
31729;DHT22;18309;43.658;1.312;2023-05-27T02:16:46;20.60;91.80
31729;DHT22;18309;43.658;1.312;2023-05-27T02:19:12;20.60;91.90
31729;DHT22;18309;43.658;1.312;2023-05-27T02:21:39;20.60;92.00
31729;DHT22;18309;43.658;1.312;2023-05-27T02:24:05;20.50;91.90
31729;DHT22;18309;43.658;1.312;2023-05-27T02:26:31;20.50;92.00
31729;DHT22;18309;43.658;1.312;2023-05-27T02:28:56;20.50;92.00
31729;DHT22;18309;43.658;1.312;2023-05-27T02:31:22;20.40;91.90
31729;DHT22;18309;43.658;1.312;2023-05-27T02:33:48;20.40;92.00
31729;DHT22;18309;43.658;1.312;2023-05-27T02:36:13;20.40;92.10
31729;DHT22;18309;43.658;1.312;2023-05-27T02:38:40;20.30;92.00
31729;DHT22;18309;43.658;1.312;2023-05-27T02:41:05;20.30;92.10
31729;DHT22;18309;43.658;1.312;2023-05-27T02:43:31;20.30;92.10
31729;DHT22;18309;43.658;1.312;2023-05-27T02:45:56;20.20;92.10
31729;DHT22;18309;43.658;1.312;2023-05-27T02:48:22;20.20;92.10
31729;DHT22;18309;43.658;1.312;2023-05-27T02:50:48;20.20;92.20
31729;DHT22;18309;43.658;1.312;2023-05-27T02:53:14;20.20;92.20
31729;DHT22;18309;43.658;1.312;2023-05-27T02:55:40;20.10;92.30
31729;DHT22;18309;43.658;1.312;2023-05-27T02:58:05;20.10;92.50
31729;DHT22;18309;43.658;1.312;2023-05-27T03:00:32;20.00;92.50
31729;DHT22;18309;43.658;1.312;2023-05-27T03:02:58;20.00;92.60
31729;DHT22;18309;43.658;1.312;2023-05-27T03:05:24;20.00;92.60
31729;DHT22;18309;43.658;1.312;2023-05-27T03:07:50;20.00;92.60
31729;DHT22;18309;43.658;1.312;2023-05-27T03:10:16;19.90;92.60
31729;DHT22;18309;43.658;1.312;2023-05-27T03:12:41;19.90;92.70
31729;DHT22;18309;43.658;1.312;2023-05-27T03:15:07;19.80;92.70
31729;DHT22;18309;43.658;1.312;2023-05-27T03:17:37;19.80;93.00
31729;DHT22;18309;43.658;1.312;2023-05-27T03:20:03;19.80;92.60
31729;DHT22;18309;43.658;1.312;2023-05-27T03:22:31;19.80;92.60
31729;DHT22;18309;43.658;1.312;2023-05-27T03:24:56;19.70;92.60
31729;DHT22;18309;43.658;1.312;2023-05-27T03:27:22;19.70;92.70
31729;DHT22;18309;43.658;1.312;2023-05-27T03:29:48;19.70;92.70
31729;DHT22;18309;43.658;1.312;2023-05-27T03:32:14;19.60;92.90
31729;DHT22;18309;43.658;1.312;2023-05-27T03:34:40;19.60;93.00
31729;DHT22;18309;43.658;1.312;2023-05-27T03:37:06;19.50;93.00
31729;DHT22;18309;43.658;1.312;2023-05-27T03:39:31;19.50;93.10
31729;DHT22;18309;43.658;1.312;2023-05-27T03:41:58;19.50;93.10
31729;DHT22;18309;43.658;1.312;2023-05-27T03:44:23;19.50;93.00
31729;DHT22;18309;43.658;1.312;2023-05-27T03:46:49;19.50;92.90
31729;DHT22;18309;43.658;1.312;2023-05-27T03:49:15;19.40;92.70
31729;DHT22;18309;43.658;1.312;2023-05-27T03:51:41;19.40;92.80
31729;DHT22;18309;43.658;1.312;2023-05-27T03:54:07;19.40;92.90
31729;DHT22;18309;43.658;1.312;2023-05-27T03:56:33;19.40;92.90
31729;DHT22;18309;43.658;1.312;2023-05-27T03:58:58;19.40;92.90
31729;DHT22;18309;43.658;1.312;2023-05-27T04:01:24;19.30;92.90
31729;DHT22;18309;43.658;1.312;2023-05-27T04:03:50;19.30;92.90
31729;DHT22;18309;43.658;1.312;2023-05-27T04:06:16;19.30;92.90
31729;DHT22;18309;43.658;1.312;2023-05-27T04:08:42;19.30;93.00
31729;DHT22;18309;43.658;1.312;2023-05-27T04:11:11;19.20;93.10
31729;DHT22;18309;43.658;1.312;2023-05-27T04:13:40;19.20;93.20
31729;DHT22;18309;43.658;1.312;2023-05-27T04:16:06;19.10;93.20
31729;DHT22;18309;43.658;1.312;2023-05-27T04:18:33;19.10;93.20
31729;DHT22;18309;43.658;1.312;2023-05-27T04:20:59;19.10;93.20
31729;DHT22;18309;43.658;1.312;2023-05-27T04:23:25;19.10;93.20
31729;DHT22;18309;43.658;1.312;2023-05-27T04:25:51;19.10;93.40
31729;DHT22;18309;43.658;1.312;2023-05-27T04:28:18;19.00;93.60
31729;DHT22;18309;43.658;1.312;2023-05-27T04:30:44;19.00;93.70
31729;DHT22;18309;43.658;1.312;2023-05-27T04:33:15;19.00;93.70
31729;DHT22;18309;43.658;1.312;2023-05-27T04:35:40;18.90;93.80
31729;DHT22;18309;43.658;1.312;2023-05-27T04:38:09;18.90;93.80
31729;DHT22;18309;43.658;1.312;2023-05-27T04:40:36;18.90;93.90
31729;DHT22;18309;43.658;1.312;2023-05-27T04:43:02;18.90;93.90
31729;DHT22;18309;43.658;1.312;2023-05-27T04:45:27;18.90;94.00
31729;DHT22;18309;43.658;1.312;2023-05-27T04:47:55;18.80;94.10
31729;DHT22;18309;43.658;1.312;2023-05-27T04:50:21;18.90;94.20
31729;DHT22;18309;43.658;1.312;2023-05-27T04:52:48;18.80;94.30
31729;DHT22;18309;43.658;1.312;2023-05-27T04:55:14;18.80;94.30
31729;DHT22;18309;43.658;1.312;2023-05-27T04:57:40;18.70;94.50
31729;DHT22;18309;43.658;1.312;2023-05-27T05:00:07;18.70;94.40
31729;DHT22;18309;43.658;1.312;2023-05-27T05:02:36;18.70;94.40
31729;DHT22;18309;43.658;1.312;2023-05-27T05:05:06;18.70;94.60
31729;DHT22;18309;43.658;1.312;2023-05-27T05:07:32;18.70;94.70
31729;DHT22;18309;43.658;1.312;2023-05-27T05:10:15;18.70;94.90
31729;DHT22;18309;43.658;1.312;2023-05-27T05:12:41;18.70;95.00
31729;DHT22;18309;43.658;1.312;2023-05-27T05:15:07;18.70;95.20
31729;DHT22;18309;43.658;1.312;2023-05-27T05:17:33;18.60;95.30
31729;DHT22;18309;43.658;1.312;2023-05-27T05:19:59;18.60;95.40
31729;DHT22;18309;43.658;1.312;2023-05-27T05:22:25;18.60;95.50
31729;DHT22;18309;43.658;1.312;2023-05-27T05:24:52;18.60;95.50
31729;DHT22;18309;43.658;1.312;2023-05-27T05:27:18;18.60;95.50
31729;DHT22;18309;43.658;1.312;2023-05-27T05:29:44;18.60;95.50
31729;DHT22;18309;43.658;1.312;2023-05-27T05:32:10;18.60;95.60
31729;DHT22;18309;43.658;1.312;2023-05-27T05:34:40;18.60;95.60
31729;DHT22;18309;43.658;1.312;2023-05-27T05:37:06;18.60;95.60
31729;DHT22;18309;43.658;1.312;2023-05-27T05:39:32;18.60;95.60
31729;DHT22;18309;43.658;1.312;2023-05-27T05:41:58;18.70;95.70
31729;DHT22;18309;43.658;1.312;2023-05-27T05:44:25;18.70;95.70
31729;DHT22;18309;43.658;1.312;2023-05-27T05:46:51;18.70;95.80
31729;DHT22;18309;43.658;1.312;2023-05-27T05:49:18;18.70;95.80
31729;DHT22;18309;43.658;1.312;2023-05-27T05:51:44;18.70;96.20
31729;DHT22;18309;43.658;1.312;2023-05-27T05:54:10;18.70;96.00
31729;DHT22;18309;43.658;1.312;2023-05-27T05:56:36;18.70;96.10
31729;DHT22;18309;43.658;1.312;2023-05-27T05:59:01;18.70;96.20
31729;DHT22;18309;43.658;1.312;2023-05-27T06:01:28;18.80;96.50
31729;DHT22;18309;43.658;1.312;2023-05-27T06:03:54;18.80;96.00
31729;DHT22;18309;43.658;1.312;2023-05-27T06:06:21;18.80;96.10
31729;DHT22;18309;43.658;1.312;2023-05-27T06:08:47;18.80;96.20
31729;DHT22;18309;43.658;1.312;2023-05-27T06:11:13;18.80;96.20
31729;DHT22;18309;43.658;1.312;2023-05-27T06:13:39;18.80;96.30
31729;DHT22;18309;43.658;1.312;2023-05-27T06:16:05;18.90;96.30
31729;DHT22;18309;43.658;1.312;2023-05-27T06:18:30;18.90;96.40
31729;DHT22;18309;43.658;1.312;2023-05-27T06:20:56;18.90;96.40
31729;DHT22;18309;43.658;1.312;2023-05-27T06:23:22;19.00;96.60
31729;DHT22;18309;43.658;1.312;2023-05-27T06:25:48;19.00;96.80
31729;DHT22;18309;43.658;1.312;2023-05-27T06:28:13;19.00;96.90
31729;DHT22;18309;43.658;1.312;2023-05-27T06:30:39;19.00;97.30
31729;DHT22;18309;43.658;1.312;2023-05-27T06:33:05;19.10;96.90
31729;DHT22;18309;43.658;1.312;2023-05-27T06:35:32;19.10;97.00
31729;DHT22;18309;43.658;1.312;2023-05-27T06:38:00;19.10;97.00
31729;DHT22;18309;43.658;1.312;2023-05-27T06:40:26;19.10;96.90
31729;DHT22;18309;43.658;1.312;2023-05-27T06:42:52;19.20;97.00
31729;DHT22;18309;43.658;1.312;2023-05-27T06:45:18;19.20;97.50
31729;DHT22;18309;43.658;1.312;2023-05-27T06:47:44;19.20;97.30
31729;DHT22;18309;43.658;1.312;2023-05-27T06:50:10;19.20;97.30
31729;DHT22;18309;43.658;1.312;2023-05-27T06:52:35;19.30;97.40
31729;DHT22;18309;43.658;1.312;2023-05-27T06:55:01;19.40;97.40
31729;DHT22;18309;43.658;1.312;2023-05-27T06:57:27;19.30;97.40
31729;DHT22;18309;43.658;1.312;2023-05-27T06:59:53;19.40;97.60
31729;DHT22;18309;43.658;1.312;2023-05-27T07:02:18;19.40;97.60
31729;DHT22;18309;43.658;1.312;2023-05-27T07:04:44;19.50;97.90
31729;DHT22;18309;43.658;1.312;2023-05-27T07:07:10;19.50;97.90
31729;DHT22;18309;43.658;1.312;2023-05-27T07:09:35;19.50;98.00
31729;DHT22;18309;43.658;1.312;2023-05-27T07:12:02;19.60;98.00
31729;DHT22;18309;43.658;1.312;2023-05-27T07:14:28;19.60;98.10
31729;DHT22;18309;43.658;1.312;2023-05-27T07:16:53;19.60;98.20
31729;DHT22;18309;43.658;1.312;2023-05-27T07:19:19;19.70;98.20
31729;DHT22;18309;43.658;1.312;2023-05-27T07:21:45;19.70;98.20
31729;DHT22;18309;43.658;1.312;2023-05-27T07:24:10;19.70;98.20
31729;DHT22;18309;43.658;1.312;2023-05-27T07:26:36;19.80;98.30
31729;DHT22;18309;43.658;1.312;2023-05-27T07:29:03;19.80;98.10
31729;DHT22;18309;43.658;1.312;2023-05-27T07:31:29;19.80;98.10
31729;DHT22;18309;43.658;1.312;2023-05-27T07:33:55;19.90;98.20
31729;DHT22;18309;43.658;1.312;2023-05-27T07:36:21;19.90;98.20
31729;DHT22;18309;43.658;1.312;2023-05-27T07:38:47;19.90;98.30
31729;DHT22;18309;43.658;1.312;2023-05-27T07:41:13;20.00;98.30
31729;DHT22;18309;43.658;1.312;2023-05-27T07:43:39;20.00;98.10
31729;DHT22;18309;43.658;1.312;2023-05-27T07:46:05;20.00;97.90
31729;DHT22;18309;43.658;1.312;2023-05-27T07:48:30;20.10;97.90
31729;DHT22;18309;43.658;1.312;2023-05-27T07:50:56;20.10;97.80
31729;DHT22;18309;43.658;1.312;2023-05-27T07:53:22;20.10;97.80
31729;DHT22;18309;43.658;1.312;2023-05-27T07:55:48;20.10;98.10
31729;DHT22;18309;43.658;1.312;2023-05-27T07:58:13;20.20;98.10
31729;DHT22;18309;43.658;1.312;2023-05-27T08:00:39;20.20;98.10
31729;DHT22;18309;43.658;1.312;2023-05-27T08:03:06;20.30;98.20
31729;DHT22;18309;43.658;1.312;2023-05-27T08:05:32;20.30;98.10
31729;DHT22;18309;43.658;1.312;2023-05-27T08:07:58;20.30;97.40
31729;DHT22;18309;43.658;1.312;2023-05-27T08:10:25;20.30;97.50
31729;DHT22;18309;43.658;1.312;2023-05-27T08:12:50;20.40;97.60
31729;DHT22;18309;43.658;1.312;2023-05-27T08:15:16;20.40;97.40
31729;DHT22;18309;43.658;1.312;2023-05-27T08:17:42;20.40;97.70
31729;DHT22;18309;43.658;1.312;2023-05-27T08:20:10;20.50;97.20
31729;DHT22;18309;43.658;1.312;2023-05-27T08:22:36;20.50;97.20
31729;DHT22;18309;43.658;1.312;2023-05-27T08:25:02;20.60;97.10
31729;DHT22;18309;43.658;1.312;2023-05-27T08:27:50;20.60;97.00
31729;DHT22;18309;43.658;1.312;2023-05-27T08:30:17;20.60;96.90
31729;DHT22;18309;43.658;1.312;2023-05-27T08:32:43;20.60;97.00
31729;DHT22;18309;43.658;1.312;2023-05-27T08:35:10;20.70;96.90
31729;DHT22;18309;43.658;1.312;2023-05-27T08:37:37;20.70;96.70
31729;DHT22;18309;43.658;1.312;2023-05-27T08:40:03;20.70;96.70
31729;DHT22;18309;43.658;1.312;2023-05-27T08:42:33;20.70;96.40
31729;DHT22;18309;43.658;1.312;2023-05-27T08:44:59;20.80;96.10
31729;DHT22;18309;43.658;1.312;2023-05-27T08:47:30;20.80;95.90
31729;DHT22;18309;43.658;1.312;2023-05-27T08:49:56;20.80;95.70
31729;DHT22;18309;43.658;1.312;2023-05-27T08:52:24;20.90;95.70
31729;DHT22;18309;43.658;1.312;2023-05-27T08:54:51;20.90;95.60
31729;DHT22;18309;43.658;1.312;2023-05-27T08:57:19;21.00;95.50
31729;DHT22;18309;43.658;1.312;2023-05-27T08:59:47;21.00;95.10
31729;DHT22;18309;43.658;1.312;2023-05-27T09:02:14;21.00;94.80
31729;DHT22;18309;43.658;1.312;2023-05-27T09:04:40;21.10;94.70
31729;DHT22;18309;43.658;1.312;2023-05-27T09:07:06;21.10;94.60
31729;DHT22;18309;43.658;1.312;2023-05-27T09:09:32;21.10;94.40
31729;DHT22;18309;43.658;1.312;2023-05-27T09:12:04;21.20;94.30
31729;DHT22;18309;43.658;1.312;2023-05-27T09:14:32;21.20;94.30
31729;DHT22;18309;43.658;1.312;2023-05-27T09:17:05;21.30;94.40
31729;DHT22;18309;43.658;1.312;2023-05-27T09:19:31;21.30;94.30
31729;DHT22;18309;43.658;1.312;2023-05-27T09:21:57;21.30;94.30
31729;DHT22;18309;43.658;1.312;2023-05-27T09:24:23;21.40;94.20
31729;DHT22;18309;43.658;1.312;2023-05-27T09:26:53;21.40;94.00
31729;DHT22;18309;43.658;1.312;2023-05-27T09:29:19;21.40;94.10
31729;DHT22;18309;43.658;1.312;2023-05-27T09:31:45;21.50;94.10
31729;DHT22;18309;43.658;1.312;2023-05-27T09:34:15;21.50;94.00
31729;DHT22;18309;43.658;1.312;2023-05-27T09:36:45;21.50;93.90
31729;DHT22;18309;43.658;1.312;2023-05-27T09:39:13;21.60;93.60
31729;DHT22;18309;43.658;1.312;2023-05-27T09:41:39;21.70;93.10
31729;DHT22;18309;43.658;1.312;2023-05-27T09:44:05;21.70;93.20
31729;DHT22;18309;43.658;1.312;2023-05-27T09:46:35;21.70;92.80
31729;DHT22;18309;43.658;1.312;2023-05-27T09:49:02;21.70;92.50
31729;DHT22;18309;43.658;1.312;2023-05-27T09:51:31;21.80;92.40
31729;DHT22;18309;43.658;1.312;2023-05-27T09:53:58;21.90;92.10
31729;DHT22;18309;43.658;1.312;2023-05-27T09:56:25;21.90;91.80
31729;DHT22;18309;43.658;1.312;2023-05-27T09:58:57;21.90;91.70
31729;DHT22;18309;43.658;1.312;2023-05-27T10:01:28;22.00;91.60
31729;DHT22;18309;43.658;1.312;2023-05-27T10:03:55;22.00;91.50
31729;DHT22;18309;43.658;1.312;2023-05-27T10:06:22;22.10;91.00
31729;DHT22;18309;43.658;1.312;2023-05-27T10:08:50;22.10;91.00
31729;DHT22;18309;43.658;1.312;2023-05-27T10:11:18;22.20;90.90
31729;DHT22;18309;43.658;1.312;2023-05-27T10:13:44;22.20;90.60
31729;DHT22;18309;43.658;1.312;2023-05-27T10:16:22;22.20;90.70
31729;DHT22;18309;43.658;1.312;2023-05-27T10:18:52;22.30;90.90
31729;DHT22;18309;43.658;1.312;2023-05-27T10:21:20;22.30;90.40
31729;DHT22;18309;43.658;1.312;2023-05-27T10:24:02;22.40;90.30
31729;DHT22;18309;43.658;1.312;2023-05-27T10:26:40;22.40;90.10
31729;DHT22;18309;43.658;1.312;2023-05-27T10:31:33;22.50;89.40
31729;DHT22;18309;43.658;1.312;2023-05-27T10:33:59;22.60;89.40
31729;DHT22;18309;43.658;1.312;2023-05-27T10:36:26;22.60;89.10
31729;DHT22;18309;43.658;1.312;2023-05-27T10:38:56;22.60;88.80
31729;DHT22;18309;43.658;1.312;2023-05-27T10:41:22;22.70;88.90
31729;DHT22;18309;43.658;1.312;2023-05-27T10:43:58;22.70;88.80
31729;DHT22;18309;43.658;1.312;2023-05-27T10:46:25;22.80;88.70
31729;DHT22;18309;43.658;1.312;2023-05-27T10:48:51;22.80;88.80
31729;DHT22;18309;43.658;1.312;2023-05-27T10:51:17;22.80;89.40
31729;DHT22;18309;43.658;1.312;2023-05-27T10:53:43;22.90;88.90
31729;DHT22;18309;43.658;1.312;2023-05-27T10:56:10;22.90;88.40
31729;DHT22;18309;43.658;1.312;2023-05-27T10:58:38;23.00;88.60
31729;DHT22;18309;43.658;1.312;2023-05-27T11:01:14;23.00;87.80
31729;DHT22;18309;43.658;1.312;2023-05-27T11:03:43;23.00;86.60
31729;DHT22;18309;43.658;1.312;2023-05-27T11:06:10;23.10;86.90
31729;DHT22;18309;43.658;1.312;2023-05-27T11:08:36;23.10;87.60
31729;DHT22;18309;43.658;1.312;2023-05-27T11:11:12;23.20;88.00
31729;DHT22;18309;43.658;1.312;2023-05-27T11:13:41;23.20;88.50
31729;DHT22;18309;43.658;1.312;2023-05-27T11:16:12;23.30;88.50
31729;DHT22;18309;43.658;1.312;2023-05-27T11:18:56;23.30;88.50
31729;DHT22;18309;43.658;1.312;2023-05-27T11:21:21;23.40;89.20
31729;DHT22;18309;43.658;1.312;2023-05-27T11:23:48;23.40;88.80
31729;DHT22;18309;43.658;1.312;2023-05-27T11:26:19;23.50;88.80
31729;DHT22;18309;43.658;1.312;2023-05-27T11:31:14;23.50;88.30
31729;DHT22;18309;43.658;1.312;2023-05-27T11:33:41;23.60;88.30
31729;DHT22;18309;43.658;1.312;2023-05-27T11:36:11;23.60;88.20
31729;DHT22;18309;43.658;1.312;2023-05-27T11:38:56;23.60;87.50
31729;DHT22;18309;43.658;1.312;2023-05-27T11:41:24;23.70;87.50
31729;DHT22;18309;43.658;1.312;2023-05-27T11:46:33;23.80;85.90
31729;DHT22;18309;43.658;1.312;2023-05-27T11:48:58;23.80;86.10
31729;DHT22;18309;43.658;1.312;2023-05-27T11:51:28;23.80;86.10
31729;DHT22;18309;43.658;1.312;2023-05-27T11:53:54;23.90;86.60
31729;DHT22;18309;43.658;1.312;2023-05-27T11:56:20;23.90;87.00
31729;DHT22;18309;43.658;1.312;2023-05-27T11:58:47;24.00;87.20
31729;DHT22;18309;43.658;1.312;2023-05-27T12:01:12;24.00;86.70
31729;DHT22;18309;43.658;1.312;2023-05-27T12:03:38;24.00;87.00
31729;DHT22;18309;43.658;1.312;2023-05-27T12:06:04;24.10;87.30
31729;DHT22;18309;43.658;1.312;2023-05-27T12:08:30;24.10;87.20
31729;DHT22;18309;43.658;1.312;2023-05-27T12:10:56;24.20;87.30
31729;DHT22;18309;43.658;1.312;2023-05-27T12:13:22;24.20;87.30
31729;DHT22;18309;43.658;1.312;2023-05-27T12:15:49;24.20;87.00
31729;DHT22;18309;43.658;1.312;2023-05-27T12:18:15;24.30;86.80
31729;DHT22;18309;43.658;1.312;2023-05-27T12:20:41;24.30;86.80
31729;DHT22;18309;43.658;1.312;2023-05-27T12:23:06;24.30;86.50
31729;DHT22;18309;43.658;1.312;2023-05-27T12:25:32;24.40;87.30
31729;DHT22;18309;43.658;1.312;2023-05-27T12:27:58;24.40;86.90
31729;DHT22;18309;43.658;1.312;2023-05-27T12:30:23;24.40;86.30
31729;DHT22;18309;43.658;1.312;2023-05-27T12:32:49;24.50;86.50
31729;DHT22;18309;43.658;1.312;2023-05-27T12:35:14;24.50;86.70
31729;DHT22;18309;43.658;1.312;2023-05-27T12:37:40;24.60;86.10
31729;DHT22;18309;43.658;1.312;2023-05-27T12:40:07;24.60;85.80
31729;DHT22;18309;43.658;1.312;2023-05-27T12:42:35;24.60;85.60
31729;DHT22;18309;43.658;1.312;2023-05-27T12:45:01;24.70;85.20
31729;DHT22;18309;43.658;1.312;2023-05-27T12:47:27;24.70;84.40
31729;DHT22;18309;43.658;1.312;2023-05-27T12:49:52;24.70;84.90
31729;DHT22;18309;43.658;1.312;2023-05-27T12:52:18;24.80;85.40
31729;DHT22;18309;43.658;1.312;2023-05-27T12:54:44;24.80;84.80
31729;DHT22;18309;43.658;1.312;2023-05-27T12:57:10;24.90;84.30
31729;DHT22;18309;43.658;1.312;2023-05-27T12:59:36;25.00;82.90
31729;DHT22;18309;43.658;1.312;2023-05-27T13:02:02;25.10;82.90
31729;DHT22;18309;43.658;1.312;2023-05-27T13:04:27;25.20;82.00
31729;DHT22;18309;43.658;1.312;2023-05-27T13:06:53;25.30;81.70
31729;DHT22;18309;43.658;1.312;2023-05-27T13:09:19;25.30;81.60
31729;DHT22;18309;43.658;1.312;2023-05-27T13:11:45;25.40;81.20
31729;DHT22;18309;43.658;1.312;2023-05-27T13:14:11;25.50;81.40
31729;DHT22;18309;43.658;1.312;2023-05-27T13:16:37;25.60;81.20
31729;DHT22;18309;43.658;1.312;2023-05-27T13:19:03;25.60;81.90
31729;DHT22;18309;43.658;1.312;2023-05-27T13:21:29;25.60;82.40
31729;DHT22;18309;43.658;1.312;2023-05-27T13:23:54;25.80;82.00
31729;DHT22;18309;43.658;1.312;2023-05-27T13:26:21;25.90;81.60
31729;DHT22;18309;43.658;1.312;2023-05-27T13:28:48;25.90;81.40
31729;DHT22;18309;43.658;1.312;2023-05-27T13:31:13;26.10;81.30
31729;DHT22;18309;43.658;1.312;2023-05-27T13:33:43;26.20;81.40
31729;DHT22;18309;43.658;1.312;2023-05-27T13:36:09;26.30;81.10
31729;DHT22;18309;43.658;1.312;2023-05-27T13:38:34;26.40;80.50
31729;DHT22;18309;43.658;1.312;2023-05-27T13:41:00;26.50;80.60
31729;DHT22;18309;43.658;1.312;2023-05-27T13:43:27;26.70;80.30
31729;DHT22;18309;43.658;1.312;2023-05-27T13:45:53;26.80;80.40
31729;DHT22;18309;43.658;1.312;2023-05-27T13:48:19;26.90;79.30
31729;DHT22;18309;43.658;1.312;2023-05-27T13:50:45;27.00;78.60
31729;DHT22;18309;43.658;1.312;2023-05-27T13:53:11;27.10;78.50
31729;DHT22;18309;43.658;1.312;2023-05-27T13:55:36;27.20;78.10
31729;DHT22;18309;43.658;1.312;2023-05-27T13:58:02;27.40;78.10
31729;DHT22;18309;43.658;1.312;2023-05-27T14:00:29;27.50;78.00
31729;DHT22;18309;43.658;1.312;2023-05-27T14:02:56;27.70;75.70
31729;DHT22;18309;43.658;1.312;2023-05-27T14:05:23;27.90;73.10
31729;DHT22;18309;43.658;1.312;2023-05-27T14:07:49;28.00;73.30
31729;DHT22;18309;43.658;1.312;2023-05-27T14:10:15;28.10;73.60
31729;DHT22;18309;43.658;1.312;2023-05-27T14:12:41;28.30;74.90
31729;DHT22;18309;43.658;1.312;2023-05-27T14:15:07;28.40;75.00
31729;DHT22;18309;43.658;1.312;2023-05-27T14:17:33;28.50;75.10
31729;DHT22;18309;43.658;1.312;2023-05-27T14:19:58;28.70;75.20
31729;DHT22;18309;43.658;1.312;2023-05-27T14:22:24;28.90;74.10
31729;DHT22;18309;43.658;1.312;2023-05-27T14:24:50;29.10;74.20
31729;DHT22;18309;43.658;1.312;2023-05-27T14:27:16;29.20;73.90
31729;DHT22;18309;43.658;1.312;2023-05-27T14:29:42;29.30;73.80
31729;DHT22;18309;43.658;1.312;2023-05-27T14:32:07;29.60;73.40
31729;DHT22;18309;43.658;1.312;2023-05-27T14:34:33;29.70;73.30
31729;DHT22;18309;43.658;1.312;2023-05-27T14:36:59;29.90;72.00
31729;DHT22;18309;43.658;1.312;2023-05-27T14:39:24;30.10;70.80
31729;DHT22;18309;43.658;1.312;2023-05-27T14:41:50;30.30;70.20
31729;DHT22;18309;43.658;1.312;2023-05-27T14:44:16;30.50;68.80
31729;DHT22;18309;43.658;1.312;2023-05-27T14:46:42;30.70;68.80
31729;DHT22;18309;43.658;1.312;2023-05-27T14:49:07;30.90;68.50
31729;DHT22;18309;43.658;1.312;2023-05-27T14:51:33;31.00;68.20
31729;DHT22;18309;43.658;1.312;2023-05-27T14:53:59;31.10;67.70
31729;DHT22;18309;43.658;1.312;2023-05-27T14:56:24;31.20;67.60
31729;DHT22;18309;43.658;1.312;2023-05-27T14:58:51;31.50;66.10
31729;DHT22;18309;43.658;1.312;2023-05-27T15:01:16;31.70;64.00
31729;DHT22;18309;43.658;1.312;2023-05-27T15:03:42;31.80;64.70
31729;DHT22;18309;43.658;1.312;2023-05-27T15:06:08;31.90;65.70
31729;DHT22;18309;43.658;1.312;2023-05-27T15:08:35;32.10;63.70
31729;DHT22;18309;43.658;1.312;2023-05-27T15:11:01;32.20;64.50
31729;DHT22;18309;43.658;1.312;2023-05-27T15:13:27;32.50;64.30
31729;DHT22;18309;43.658;1.312;2023-05-27T15:15:53;32.60;64.40
31729;DHT22;18309;43.658;1.312;2023-05-27T15:18:18;32.70;64.20
31729;DHT22;18309;43.658;1.312;2023-05-27T15:20:44;32.90;62.00
31729;DHT22;18309;43.658;1.312;2023-05-27T15:23:10;33.00;60.70
31729;DHT22;18309;43.658;1.312;2023-05-27T15:25:36;33.20;60.90
31729;DHT22;18309;43.658;1.312;2023-05-27T15:28:02;33.30;61.30
31729;DHT22;18309;43.658;1.312;2023-05-27T15:30:27;33.40;60.30
31729;DHT22;18309;43.658;1.312;2023-05-27T15:32:53;33.50;60.90
31729;DHT22;18309;43.658;1.312;2023-05-27T15:35:19;33.70;60.90
31729;DHT22;18309;43.658;1.312;2023-05-27T15:37:45;33.80;60.10
31729;DHT22;18309;43.658;1.312;2023-05-27T15:40:12;33.90;59.90
31729;DHT22;18309;43.658;1.312;2023-05-27T15:42:38;34.00;59.40